Vremea acum in Alexandria - Romania

Vrei sa afli care e starea vremii acum in Teleorman - Romania? Dorim sa iti furnizam starea vremii pentru Teleorman - Romania. Starea vremii Teleorman - Romania pentru astazi.

Vremea acum in Alexandria

Temperatura: 17.3 °C

Este: Partial innorat
Se simte ca: 17.3 °C
Innorat: 75 %
Precipitatii: 100 %
Presiune atmosferica: 1014 hPa
Umiditate: 77%
Vizibilitate: 10 km
Vantul bate din NNE cu 11.9 km/h

Evolutia vremii in Alexandria pe ore

Ora: 17:00
Ploi usoare
Temperatura: 17.4°C
Sansa de precipitatii: 100%
Ora Descriere Temp Se simte Precipitatii Umiditate Vant
00:00Innorat16.6°16.6°0%90%WNW 13 KM/H
01:00Acoperit de nori16.4°16.4°0%92%NNW 12.2 KM/H
02:00Patchy rain nearby16.3°16.3°70%90%NNW 13.3 KM/H
03:00Patchy rain nearby16.3°16.3°61%90%NNW 9.7 KM/H
04:00Patchy rain nearby16.1°16.1°100%92%NW 7.9 KM/H
05:00Burniță ușoară15.6°15.6°100%94%NNW 8.3 KM/H
06:00Ploi usoare15.1°15.1°100%97%NNE 9.4 KM/H
07:00Ploi usoare15.5°15.5°100%95%NE 13.7 KM/H
08:00Patchy rain nearby15.6°15.6°69%91%ENE 16.6 KM/H
09:00Patchy rain nearby16.3°16.3°61%87%ENE 16.6 KM/H
10:00Patchy rain nearby16.3°16.3°71%86%ENE 15.1 KM/H
11:00Patchy rain nearby16.7°16.7°78%83%E 13.3 KM/H
12:00Patchy rain nearby17.3°17.3°89%77%ENE 11.5 KM/H
13:00Patchy rain nearby17.8°17.8°82%75%NE 10.4 KM/H
14:00Partial innorat17.3°18.1°100%77%NNE 11.9 KM/H
15:00Ploi usoare17.4°17.4°100%78%NNE 10.4 KM/H
16:00Ploi usoare18.1°18.1°100%75%NE 7.9 KM/H
17:00Ploi usoare17.4°17.5°100%77%ENE 6.8 KM/H
18:00Patchy rain nearby16.7°16.7°89%81%ENE 5.4 KM/H
19:00Patchy rain nearby16°16°66%85%NE 4 KM/H
20:00Acoperit de nori15.4°15.5°0%86%NNE 3.2 KM/H
21:0015°15°0%87%NNE 1.4 KM/H
22:00Acoperit de nori14.4°14.4°0%88%W 1.1 KM/H
23:00Innorat14.6°14.6°0%88%WSW 2.9 KM/H




tutorials